createdAt,value
2022-07-29T00:02:50.265Z,21.48
2022-07-29T00:06:52.376Z,21.32
2022-07-29T00:10:54.051Z,21.24
2022-07-29T00:14:56.712Z,21.13
2022-07-29T00:19:01.867Z,20.98
2022-07-29T00:23:04.270Z,20.83
2022-07-29T00:27:06.057Z,20.76
2022-07-29T00:31:09.090Z,20.64
2022-07-29T00:35:29.586Z,20.61
2022-07-29T00:39:31.479Z,20.64
2022-07-29T00:43:33.298Z,20.67
2022-07-29T00:47:34.903Z,20.66
2022-07-29T00:51:37.920Z,20.55
2022-07-29T00:55:39.792Z,20.47
2022-07-29T00:59:41.497Z,20.41
2022-07-29T01:03:43.175Z,20.39
2022-07-29T01:07:46.711Z,20.44
2022-07-29T01:11:49.474Z,20.43
2022-07-29T01:15:55.649Z,20.40
2022-07-29T01:20:07.085Z,20.36
2022-07-29T01:24:17.534Z,20.34
2022-07-29T01:28:45.911Z,20.28
2022-07-29T01:32:55.535Z,20.26
2022-07-29T01:37:12.080Z,20.25
2022-07-29T01:41:21.548Z,20.26
2022-07-29T01:45:34.952Z,20.15
2022-07-29T01:49:41.081Z,20.07
2022-07-29T01:53:56.054Z,20.04
2022-07-29T01:57:59.934Z,19.99
2022-07-29T02:02:02.600Z,19.98
2022-07-29T02:06:07.105Z,19.94
2022-07-29T02:10:11.601Z,19.94
2022-07-29T02:14:15.725Z,19.97
2022-07-29T02:18:19.429Z,19.95
2022-07-29T02:22:22.144Z,19.96
2022-07-29T02:26:27.179Z,19.99
2022-07-29T02:30:31.406Z,19.98
2022-07-29T02:34:35.429Z,19.95
2022-07-29T02:38:53.711Z,19.91
2022-07-29T02:42:55.978Z,19.90
2022-07-29T02:47:31.576Z,19.94
2022-07-29T02:51:52.118Z,19.90
2022-07-29T02:56:00.147Z,19.85
2022-07-29T03:00:08.162Z,19.78
2022-07-29T03:04:12.755Z,19.74
2022-07-29T03:08:16.804Z,19.67
2022-07-29T03:12:19.209Z,19.66
2022-07-29T03:16:22.029Z,19.59
2022-07-29T03:20:23.798Z,19.48
2022-07-29T03:24:29.745Z,19.44
2022-07-29T03:28:32.605Z,19.33
2022-07-29T03:32:34.688Z,19.32
2022-07-29T03:36:36.395Z,19.22
2022-07-29T03:40:49.825Z,19.22
2022-07-29T03:44:53.686Z,19.17
2022-07-29T03:49:01.015Z,19.14
2022-07-29T03:53:04.165Z,19.15
2022-07-29T03:57:07.075Z,19.19
2022-07-29T04:01:08.979Z,19.19
2022-07-29T04:05:14.421Z,19.20
2022-07-29T04:09:18.173Z,19.21
2022-07-29T04:13:21.206Z,19.20
2022-07-29T04:17:23.553Z,19.20
2022-07-29T04:21:25.691Z,19.24
2022-07-29T04:25:27.470Z,19.26
2022-07-29T04:29:29.127Z,19.29
2022-07-29T04:33:30.728Z,19.31
2022-07-29T04:37:32.482Z,19.31
2022-07-29T04:41:34.653Z,19.31
2022-07-29T04:45:36.830Z,19.31
2022-07-29T04:49:39.685Z,19.35
2022-07-29T04:53:41.228Z,19.39
2022-07-29T04:57:42.891Z,19.41
2022-07-29T05:01:44.567Z,19.43
2022-07-29T05:05:46.336Z,19.46
2022-07-29T05:09:48.075Z,19.51
2022-07-29T05:13:49.730Z,19.58
2022-07-29T05:17:51.350Z,19.55
2022-07-29T05:21:52.971Z,19.64
2022-07-29T05:25:54.567Z,19.68
2022-07-29T05:29:56.162Z,19.71
2022-07-29T05:33:57.853Z,19.77
2022-07-29T05:37:59.414Z,19.89
2022-07-29T05:42:01.029Z,19.95
2022-07-29T05:46:02.783Z,19.98
2022-07-29T05:50:05.521Z,19.99
2022-07-29T05:54:07.200Z,20.14
2022-07-29T05:58:08.789Z,20.23
2022-07-29T06:02:10.549Z,20.29
2022-07-29T06:06:12.405Z,20.35
2022-07-29T06:10:14.339Z,20.52
2022-07-29T06:14:16.329Z,20.64
2022-07-29T06:18:18.509Z,20.80
2022-07-29T06:22:20.158Z,20.95
2022-07-29T06:26:31.007Z,21.14
2022-07-29T06:30:34.237Z,21.32
2022-07-29T06:34:36.891Z,21.53
2022-07-29T06:38:42.092Z,21.71
2022-07-29T06:42:47.184Z,21.96
2022-07-29T06:46:51.105Z,22.20
2022-07-29T06:50:52.703Z,22.32
2022-07-29T06:54:56.056Z,22.39
2022-07-29T06:58:57.696Z,22.38
2022-07-29T07:02:59.289Z,22.42
2022-07-29T07:07:00.951Z,22.61
2022-07-29T07:11:02.748Z,22.67
2022-07-29T07:15:04.880Z,22.73
2022-07-29T07:19:06.545Z,22.99
2022-07-29T07:23:08.352Z,23.25
2022-07-29T07:27:10.044Z,23.52
2022-07-29T07:31:13.126Z,23.83
2022-07-29T07:35:15.425Z,24.11
2022-07-29T07:39:17.243Z,24.44
2022-07-29T07:43:20.074Z,24.83
2022-07-29T07:47:24.521Z,24.99
2022-07-29T07:51:30.184Z,25.15
2022-07-29T07:55:47.489Z,25.45
2022-07-29T07:59:54.272Z,25.74
2022-07-29T08:03:56.055Z,25.88
2022-07-29T08:07:57.773Z,25.81
2022-07-29T08:12:00.490Z,25.94
2022-07-29T08:16:04.321Z,26.22
2022-07-29T08:20:08.118Z,26.51
2022-07-29T08:24:29.846Z,26.52
2022-07-29T08:28:31.866Z,26.80
2022-07-29T08:32:52.507Z,27.17
2022-07-29T08:36:56.696Z,27.70
2022-07-29T08:40:59.468Z,27.92
2022-07-29T08:45:01.350Z,27.61
2022-07-29T08:49:03.169Z,27.59
2022-07-29T08:53:06.015Z,27.56
2022-07-29T08:57:07.722Z,27.63
2022-07-29T09:01:13.914Z,28.06
2022-07-29T09:05:16.849Z,28.08
2022-07-29T09:09:18.778Z,28.02
2022-07-29T09:13:20.424Z,28.09
2022-07-29T09:17:53.025Z,28.45
2022-07-29T09:22:03.059Z,28.32
2022-07-29T09:26:09.588Z,28.42
2022-07-29T09:30:15.266Z,28.44
2022-07-29T09:34:30.733Z,28.47
2022-07-29T09:38:33.631Z,28.60
2022-07-29T09:42:35.348Z,28.88
2022-07-29T09:46:37.277Z,29.07
2022-07-29T09:50:43.310Z,29.23
2022-07-29T09:54:45.941Z,29.33
2022-07-29T09:58:47.709Z,29.50
2022-07-29T10:02:49.738Z,29.66
2022-07-29T10:07:05.274Z,29.46
2022-07-29T10:11:15.704Z,29.72
2022-07-29T10:15:17.498Z,30.03
2022-07-29T10:19:19.487Z,30.08
2022-07-29T10:23:21.488Z,30.23
2022-07-29T10:27:23.186Z,30.38
2022-07-29T10:31:37.801Z,30.83
2022-07-29T10:35:39.668Z,30.82
2022-07-29T10:40:23.667Z,30.69
2022-07-29T10:44:26.785Z,30.94
2022-07-29T10:48:28.533Z,30.94
2022-07-29T10:52:51.596Z,31.04
2022-07-29T10:56:53.305Z,30.69
2022-07-29T11:00:57.580Z,31.10
2022-07-29T11:05:01.371Z,31.24
2022-07-29T11:09:25.589Z,31.69
2022-07-29T11:13:49.397Z,32.25
2022-07-29T11:17:54.475Z,32.21
2022-07-29T11:21:58.533Z,32.53
2022-07-29T11:26:23.085Z,32.93
2022-07-29T11:30:52.207Z,32.95
2022-07-29T11:35:17.208Z,33.26
2022-07-29T11:39:27.062Z,33.02
2022-07-29T11:43:53.541Z,32.40
2022-07-29T11:48:05.249Z,32.10
2022-07-29T11:52:08.203Z,32.55
2022-07-29T11:56:17.044Z,33.58
2022-07-29T12:00:23.545Z,33.94
2022-07-29T12:04:27.632Z,34.28
2022-07-29T12:08:30.539Z,34.49
2022-07-29T12:12:32.274Z,34.83
2022-07-29T12:16:38.344Z,35.39
2022-07-29T12:20:40.392Z,35.96
2022-07-29T12:24:45.704Z,36.28
2022-07-29T12:28:52.796Z,36.57
2022-07-29T12:32:56.569Z,37.03
2022-07-29T12:36:58.545Z,37.56
2022-07-29T12:41:00.450Z,38.16
2022-07-29T12:45:02.593Z,38.72
2022-07-29T12:49:04.747Z,39.35
2022-07-29T12:53:12.651Z,39.35
2022-07-29T12:57:20.082Z,39.30
2022-07-29T13:01:22.598Z,39.65
2022-07-29T13:05:25.320Z,39.80
2022-07-29T13:09:41.410Z,40.67
2022-07-29T13:14:06.626Z,40.77
2022-07-29T13:18:32.380Z,41.14
2022-07-29T13:22:34.031Z,41.38
2022-07-29T13:26:35.941Z,40.01
2022-07-29T13:30:37.831Z,38.82
2022-07-29T13:34:46.430Z,38.03
2022-07-29T13:38:48.336Z,38.53
2022-07-29T13:42:50.071Z,39.15
2022-07-29T13:46:51.923Z,38.17
2022-07-29T13:50:53.726Z,37.11
2022-07-29T13:54:55.390Z,36.00
2022-07-29T13:58:58.174Z,35.30
2022-07-29T14:02:59.824Z,34.62
2022-07-29T14:07:03.578Z,33.81
2022-07-29T14:11:05.650Z,32.92
2022-07-29T14:15:07.582Z,32.35
2022-07-29T14:19:09.216Z,31.84
2022-07-29T14:23:10.870Z,31.77
2022-07-29T14:27:14.807Z,31.40
2022-07-29T14:31:17.053Z,31.10
2022-07-29T14:35:18.942Z,30.77
2022-07-29T14:39:21.096Z,30.50
2022-07-29T14:43:22.757Z,30.43
2022-07-29T14:47:24.785Z,30.42
2022-07-29T14:51:32.429Z,30.50
2022-07-29T14:55:34.296Z,30.55
2022-07-29T14:59:37.307Z,30.60
2022-07-29T15:03:38.965Z,30.94
2022-07-29T15:07:40.940Z,31.25
2022-07-29T15:11:42.734Z,31.33
2022-07-29T15:15:47.081Z,31.82
2022-07-29T15:19:48.871Z,32.63
2022-07-29T15:23:50.605Z,33.33
2022-07-29T15:27:53.990Z,33.67
2022-07-29T15:31:57.700Z,33.64
2022-07-29T15:35:59.701Z,33.44
2022-07-29T15:40:01.467Z,33.23
2022-07-29T15:44:03.037Z,33.09
2022-07-29T15:48:07.574Z,32.81
2022-07-29T15:52:10.594Z,32.75
2022-07-29T15:56:14.265Z,32.57
2022-07-29T16:00:17.882Z,32.52
2022-07-29T16:04:20.037Z,32.30
2022-07-29T16:08:21.692Z,32.08
2022-07-29T16:12:23.354Z,31.97
2022-07-29T16:16:25.129Z,31.74
2022-07-29T16:20:27.068Z,31.50
2022-07-29T16:24:29.818Z,31.16
2022-07-29T16:28:31.695Z,30.76
2022-07-29T16:32:33.605Z,29.92
2022-07-29T16:36:35.297Z,29.22
2022-07-29T16:40:36.985Z,28.82
2022-07-29T16:44:38.752Z,28.67
2022-07-29T16:48:40.779Z,28.29
2022-07-29T16:52:43.150Z,28.00
2022-07-29T16:56:44.831Z,27.66
2022-07-29T17:00:46.494Z,27.58
2022-07-29T17:04:48.463Z,27.45
2022-07-29T17:08:50.196Z,27.31
2022-07-29T17:12:52.079Z,27.12
2022-07-29T17:17:01.298Z,26.92
2022-07-29T17:21:03.803Z,26.83
2022-07-29T17:25:06.481Z,26.68
2022-07-29T17:29:08.159Z,26.44
2022-07-29T17:33:09.809Z,26.31
2022-07-29T17:37:12.300Z,26.13
2022-07-29T17:41:13.906Z,26.04
2022-07-29T17:45:15.545Z,25.95
2022-07-29T17:49:17.473Z,25.67
2022-07-29T17:53:19.312Z,25.62
2022-07-29T17:57:20.961Z,25.45
2022-07-29T18:01:22.631Z,25.34
2022-07-29T18:05:24.355Z,25.29
2022-07-29T18:09:27.091Z,25.18
2022-07-29T18:13:28.851Z,24.95
2022-07-29T18:17:52.861Z,24.81
2022-07-29T18:21:55.225Z,24.54
2022-07-29T18:25:58.509Z,24.51
2022-07-29T18:30:00.214Z,24.38
2022-07-29T18:34:06.636Z,24.33
2022-07-29T18:38:08.332Z,24.23
2022-07-29T18:42:09.966Z,24.16
2022-07-29T18:46:11.699Z,24.05
2022-07-29T18:50:16.784Z,23.89
2022-07-29T18:54:19.129Z,23.81
2022-07-29T18:58:37.399Z,23.74
2022-07-29T19:02:40.218Z,23.63
2022-07-29T19:06:44.466Z,23.54
2022-07-29T19:10:46.634Z,23.49
2022-07-29T19:14:48.293Z,23.33
2022-07-29T19:18:51.873Z,23.24
2022-07-29T19:22:53.517Z,23.09
2022-07-29T19:26:56.522Z,22.98
2022-07-29T19:30:58.919Z,22.83
2022-07-29T19:35:19.565Z,22.75
2022-07-29T19:39:35.285Z,22.57
2022-07-29T19:43:49.976Z,22.51
2022-07-29T19:48:01.064Z,22.44
2022-07-29T19:52:03.486Z,22.38
2022-07-29T21:17:47.255Z,21.05
2022-07-29T21:21:48.843Z,21.02
2022-07-29T21:25:50.418Z,20.97
2022-07-29T21:29:51.990Z,20.87
2022-07-29T21:33:54.179Z,20.74
2022-07-29T21:37:55.836Z,20.61
2022-07-29T21:41:57.524Z,20.51
2022-07-29T21:46:00.299Z,20.32
2022-07-29T21:50:01.990Z,20.17
2022-07-29T21:54:04.215Z,20.08
2022-07-29T21:58:06.241Z,19.80
2022-07-29T22:02:08.029Z,19.75
2022-07-29T22:06:11.328Z,19.79
2022-07-29T22:10:20.515Z,19.76
2022-07-29T22:14:22.327Z,19.70
2022-07-29T22:18:23.948Z,19.74
2022-07-29T22:22:25.634Z,19.77
2022-07-29T22:26:27.360Z,19.86
2022-07-29T22:30:29.019Z,19.86
2022-07-29T22:34:31.758Z,19.87
2022-07-29T22:38:39.526Z,19.90
2022-07-29T22:42:43.914Z,19.87
2022-07-29T22:46:45.744Z,19.90
2022-07-29T22:50:47.329Z,19.89
2022-07-29T22:54:48.959Z,19.92
2022-07-29T22:58:50.894Z,19.92
2022-07-29T23:02:52.467Z,19.91
2022-07-29T23:06:54.055Z,19.87
2022-07-29T23:10:55.678Z,19.83
2022-07-29T23:14:57.250Z,19.80
2022-07-29T23:18:58.834Z,19.68
2022-07-29T23:23:00.642Z,19.61
2022-07-29T23:27:02.675Z,19.55
2022-07-29T23:31:04.558Z,19.42
2022-07-29T23:35:07.164Z,19.31
2022-07-29T23:39:11.395Z,19.19
2022-07-29T23:43:13.002Z,19.11
2022-07-29T23:47:14.564Z,19.01
2022-07-29T23:51:16.241Z,18.96
2022-07-29T23:55:37.253Z,18.90
2022-07-29T23:59:40.257Z,18.90
